logo
Search for airport 
image banner adimage banner adimage banner ad
image banner ad

EDTBB - Tauberbischofsheim

Located in , Germany

ICAO - ED0065, IATA -

Data provided by Airmate  

General information

Coordinates: N49°38'53" E9°37'53"
Elevation is 924 feet MSL.
 
View others Airports in Baden-Württemberg

Operational data

Special qualification required
Current time UTC:
Current local time:
Weather at : ETHN - Niederstetten ( 37 km )
METAR: ETHN 171400Z 25016KT 9999 FEW030TCU BKN100 20/12 Q1016 BLU FCST CNL
TAF: TAF ETHN 171323Z 1714/1723 24012G22KT 9999 NSW SCT030 BKN100 PROB30 1714/1717 25015G25KT 7000 SHRA BKN020CB BECMG 1717/1719 20005KT 9999 NSW FEW035 SCT100
View NOTAMs / SUP AIP / TFR affecting this airport [VIEW]
Communications frequencies: [VIEW]

Runways:

RWY identifierQFULength (ft)Width (ft)SurfaceLDA (ft)
14120°292098GRASS820
30292°82098GRASS820

Airport contact information

Address: Germany

Satellite view of EDTBB